METAR Data
IDs: Format: Raw Decoded Include TAF

Data at: 2326 UTC 26 Feb 2020

FNLU 262300Z 25006KT 9000 FEW020 27/23 Q1009 NOSIG

TAF FNLU 262300Z 2700/2806 21005KT 9000 FEW012 BKN018
  TEMPO 2703/2707 13005KT 8000 FEW022 BKN040
  BECMG 2710/2712 VRB03KT 9000 NSC
  TEMPO 2713/2717 26010KT 9999 FEW020


No METAR found for FNCA

TAF FNCA 262300Z 2700/2712 VRB02KT 8000 FEW015 BKN040
  TEMPO 2703/2707 07005KT 9000 SCT012 FEW018TCU BKN020
  BECMG 2710/2712 22005KT 9999


No METAR found for FNBG

TAF FNBG 262300Z 2700/2712 23005KT 9999 FEW020
  TEMPO 2703/2707 VRB03KT 9000 SCT015 BKN040
  BECMG 2710/2712 30009KT


No METAR found for FNHU

TAF FNHU 262300Z 2700/2712 23004KT 8000 FEW012 BKN025
  BECMG 2710/2712 24008KT 9999 SCT015 FEW018CB BKN040


No METAR found for FNUE

TAF FNUE 262300Z 2700/2712 VRB02KT 8000 FEW015 BKN020
  TEMPO 2705/2709 29005KT 6000 TSRA SCT012 FEW025CB BKN040
  BECMG 2710/2712 34008KT 5000


No METAR found for FNGI

TAF FNGI 262300Z 2700/2712 VRB03KT 9000 FEW015 BKN022
  PROB30
  TEMPO 2703/2707 15004KT 6000 RA SCT015 FEW025CB BKN030


No METAR found for FNUB

TAF FNUB 262300Z 2700/2712 VRB02KT 8000 FEW020 BKN022
  BECMG 2710/2712 9999 FEW015 FEW030CB


No METAR found for FNMO

TAF FNMO 262300Z 2700/2712 17005KT 9000 FEW020 BKN040
  TEMPO 2708/2712 27010KT 8000 NSC


No METAR found for FNUG
No TAF found for FNUG

No METAR found for FNMA

TAF FNMA 262300Z 2700/2712 27005KT 8000 FEW012 BKN025
  TEMPO 2708/2712 26004KT 9999 FEW015 FEW018CB BKN040


No METAR found for FNSA

TAF FNSA 262300Z 2700/2712 VRB02KT 8000 FEW015 BKN020
  TEMPO 2703/2707 29005KT 9000 SCT022 BKN040
  BECMG 2710/2712 34008KT 6000 TSRA SCT012 FEW025CB


No METAR found for FNSO

TAF FNSO 262300Z 2700/2712 VRB02KT 8000 FEW015 BKN040
  TEMPO 2703/2707 08006KT 9000 SCT012 FEW018TCU BKN022
  BECMG 2710/2712 23005KT 9999


No METAR found for FNBC
No TAF found for FNBC

No METAR found for FNSU
No TAF found for FNSU

No METAR found for FNDU
No TAF found for FNDU

No METAR found for FNME

TAF FNME 262300Z 2700/2712 VRB03KT 8000 FEW012 BKN025
  TEMPO 2704/2708 23004KT 6000 RADZ SCT015 FEW030CB BKN040


No METAR found for FNCT

TAF FNCT 262300Z 2700/2712 24005KT 9999 FEW020
  TEMPO 2703/2707 VRB03KT 9000 FEW015 FEW018TCU BKN040
  BECMG 2710/2712 32010KT


No METAR found for FNKU

TAF FNKU 262300Z 2700/2712 23004KT 8000 FEW012 BKN025
  BECMG 2710/2712 24008KT 9999 SCT015 FEW022CB BKN040